Terminal Aerodrome Forecast
Issued by NWS

Home | Current Version | Previous Version | Text Only | Print | Product List | Glossary On
Versions: 1 2 3 4 5 6 7 8 9 10 11 12 13 14 15 16
405
FTUS46 KLOX 291136
TAFLGB
TAF
KLGB 291136Z 2912/3012 16006KT P6SM OVC013
     FM291900 18007KT P6SM SKC
     FM300000 29008KT P6SM SKC
     FM300400 VRB03KT P6SM BKN010
     FM300800 14006KT P6SM OVC015=

USA.gov is the U.S. government's official web portal to all federal, state and local government web resources and services.